sensor_id;sensor_type;location;lat;lon;timestamp;P1;durP1;ratioP1;P2;durP2;ratioP2
23754;SDS011;12057;52.042;6.830;2022-07-23T00:03:14;10.25;;;4.43;;
23754;SDS011;12057;52.042;6.830;2022-07-23T00:08:14;14.37;;;4.83;;
23754;SDS011;12057;52.042;6.830;2022-07-23T00:13:15;9.57;;;4.50;;
23754;SDS011;12057;52.042;6.830;2022-07-23T00:18:16;13.40;;;4.67;;
23754;SDS011;12057;52.042;6.830;2022-07-23T00:23:17;10.77;;;4.80;;
23754;SDS011;12057;52.042;6.830;2022-07-23T00:28:17;10.13;;;4.03;;
23754;SDS011;12057;52.042;6.830;2022-07-23T00:33:18;7.10;;;4.33;;
23754;SDS011;12057;52.042;6.830;2022-07-23T00:38:19;8.57;;;4.23;;
23754;SDS011;12057;52.042;6.830;2022-07-23T00:43:20;10.23;;;4.43;;
23754;SDS011;12057;52.042;6.830;2022-07-23T00:48:22;12.27;;;4.43;;
23754;SDS011;12057;52.042;6.830;2022-07-23T00:53:22;7.17;;;4.30;;
23754;SDS011;12057;52.042;6.830;2022-07-23T00:58:23;11.97;;;4.63;;
23754;SDS011;12057;52.042;6.830;2022-07-23T01:03:24;8.20;;;5.00;;
23754;SDS011;12057;52.042;6.830;2022-07-23T01:08:25;11.00;;;4.80;;
23754;SDS011;12057;52.042;6.830;2022-07-23T01:13:26;10.10;;;5.03;;
23754;SDS011;12057;52.042;6.830;2022-07-23T01:18:26;10.67;;;4.83;;
23754;SDS011;12057;52.042;6.830;2022-07-23T01:23:27;10.17;;;4.77;;
23754;SDS011;12057;52.042;6.830;2022-07-23T01:28:28;10.87;;;4.63;;
23754;SDS011;12057;52.042;6.830;2022-07-23T01:33:29;11.67;;;5.20;;
23754;SDS011;12057;52.042;6.830;2022-07-23T01:38:30;10.07;;;5.53;;
23754;SDS011;12057;52.042;6.830;2022-07-23T01:43:31;16.00;;;5.70;;
23754;SDS011;12057;52.042;6.830;2022-07-23T01:48:34;8.13;;;5.20;;
23754;SDS011;12057;52.042;6.830;2022-07-23T01:53:35;14.38;;;4.68;;
23754;SDS011;12057;52.042;6.830;2022-07-23T01:58:36;11.73;;;5.23;;
23754;SDS011;12057;52.042;6.830;2022-07-23T02:03:37;17.50;;;4.90;;
23754;SDS011;12057;52.042;6.830;2022-07-23T02:08:37;15.53;;;5.37;;
23754;SDS011;12057;52.042;6.830;2022-07-23T02:13:38;11.10;;;5.77;;
23754;SDS011;12057;52.042;6.830;2022-07-23T02:18:39;10.10;;;5.33;;
23754;SDS011;12057;52.042;6.830;2022-07-23T02:23:39;11.77;;;5.37;;
23754;SDS011;12057;52.042;6.830;2022-07-23T02:28:40;15.30;;;5.73;;
23754;SDS011;12057;52.042;6.830;2022-07-23T02:33:41;10.80;;;5.70;;
23754;SDS011;12057;52.042;6.830;2022-07-23T02:38:41;16.40;;;6.13;;
23754;SDS011;12057;52.042;6.830;2022-07-23T02:43:42;8.43;;;5.37;;
23754;SDS011;12057;52.042;6.830;2022-07-23T02:48:43;10.17;;;5.90;;
23754;SDS011;12057;52.042;6.830;2022-07-23T02:53:44;9.73;;;5.53;;
23754;SDS011;12057;52.042;6.830;2022-07-23T02:58:44;16.40;;;6.03;;
23754;SDS011;12057;52.042;6.830;2022-07-23T03:03:45;9.37;;;5.77;;
23754;SDS011;12057;52.042;6.830;2022-07-23T03:08:46;10.87;;;6.40;;
23754;SDS011;12057;52.042;6.830;2022-07-23T03:13:46;12.97;;;6.60;;
23754;SDS011;12057;52.042;6.830;2022-07-23T03:18:47;12.43;;;6.90;;
23754;SDS011;12057;52.042;6.830;2022-07-23T03:23:48;17.37;;;9.57;;
23754;SDS011;12057;52.042;6.830;2022-07-23T03:28:48;14.70;;;6.53;;
23754;SDS011;12057;52.042;6.830;2022-07-23T03:33:49;12.10;;;6.43;;
23754;SDS011;12057;52.042;6.830;2022-07-23T03:38:50;18.03;;;6.57;;
23754;SDS011;12057;52.042;6.830;2022-07-23T03:43:50;14.07;;;7.30;;
23754;SDS011;12057;52.042;6.830;2022-07-23T03:48:51;14.03;;;7.17;;
23754;SDS011;12057;52.042;6.830;2022-07-23T03:53:52;12.23;;;6.50;;
23754;SDS011;12057;52.042;6.830;2022-07-23T03:58:53;10.13;;;6.10;;
23754;SDS011;12057;52.042;6.830;2022-07-23T04:03:53;13.27;;;6.80;;
23754;SDS011;12057;52.042;6.830;2022-07-23T04:08:54;10.97;;;6.23;;
23754;SDS011;12057;52.042;6.830;2022-07-23T04:13:55;12.50;;;6.73;;
23754;SDS011;12057;52.042;6.830;2022-07-23T04:18:55;18.13;;;6.97;;
23754;SDS011;12057;52.042;6.830;2022-07-23T04:23:56;11.00;;;7.30;;
23754;SDS011;12057;52.042;6.830;2022-07-23T04:28:57;12.20;;;7.30;;
23754;SDS011;12057;52.042;6.830;2022-07-23T04:33:58;12.30;;;7.27;;
23754;SDS011;12057;52.042;6.830;2022-07-23T04:38:59;12.00;;;6.60;;
23754;SDS011;12057;52.042;6.830;2022-07-23T04:44:00;13.57;;;7.23;;
23754;SDS011;12057;52.042;6.830;2022-07-23T04:49:01;18.50;;;7.15;;
23754;SDS011;12057;52.042;6.830;2022-07-23T04:54:02;12.13;;;7.00;;
23754;SDS011;12057;52.042;6.830;2022-07-23T04:59:03;15.30;;;8.13;;
23754;SDS011;12057;52.042;6.830;2022-07-23T05:04:04;16.47;;;8.13;;
23754;SDS011;12057;52.042;6.830;2022-07-23T05:09:04;28.33;;;10.00;;
23754;SDS011;12057;52.042;6.830;2022-07-23T05:14:05;11.47;;;7.43;;
23754;SDS011;12057;52.042;6.830;2022-07-23T05:19:06;15.13;;;7.30;;
23754;SDS011;12057;52.042;6.830;2022-07-23T05:24:07;19.23;;;8.57;;
23754;SDS011;12057;52.042;6.830;2022-07-23T05:29:08;15.73;;;7.37;;
23754;SDS011;12057;52.042;6.830;2022-07-23T05:34:08;17.13;;;8.80;;
23754;SDS011;12057;52.042;6.830;2022-07-23T05:39:09;21.80;;;8.57;;
23754;SDS011;12057;52.042;6.830;2022-07-23T05:44:13;19.20;;;9.90;;
23754;SDS011;12057;52.042;6.830;2022-07-23T05:49:14;15.00;;;7.32;;
23754;SDS011;12057;52.042;6.830;2022-07-23T05:54:15;12.30;;;8.40;;
23754;SDS011;12057;52.042;6.830;2022-07-23T05:59:15;15.87;;;8.10;;
23754;SDS011;12057;52.042;6.830;2022-07-23T06:04:16;22.97;;;10.07;;
23754;SDS011;12057;52.042;6.830;2022-07-23T06:09:17;16.80;;;8.33;;
23754;SDS011;12057;52.042;6.830;2022-07-23T06:14:18;12.47;;;6.77;;
23754;SDS011;12057;52.042;6.830;2022-07-23T06:19:18;16.23;;;7.87;;
23754;SDS011;12057;52.042;6.830;2022-07-23T06:24:19;10.30;;;5.87;;
23754;SDS011;12057;52.042;6.830;2022-07-23T06:29:20;11.73;;;5.80;;
23754;SDS011;12057;52.042;6.830;2022-07-23T06:34:20;38.57;;;7.10;;
23754;SDS011;12057;52.042;6.830;2022-07-23T06:39:21;15.20;;;5.03;;
23754;SDS011;12057;52.042;6.830;2022-07-23T06:44:22;16.97;;;5.43;;
23754;SDS011;12057;52.042;6.830;2022-07-23T06:49:26;9.30;;;4.67;;
23754;SDS011;12057;52.042;6.830;2022-07-23T06:54:26;13.98;;;4.50;;
23754;SDS011;12057;52.042;6.830;2022-07-23T06:59:27;8.73;;;4.33;;
23754;SDS011;12057;52.042;6.830;2022-07-23T07:04:28;10.20;;;4.20;;
23754;SDS011;12057;52.042;6.830;2022-07-23T07:09:29;7.47;;;4.50;;
23754;SDS011;12057;52.042;6.830;2022-07-23T07:14:30;16.80;;;4.10;;
23754;SDS011;12057;52.042;6.830;2022-07-23T07:19:31;10.47;;;2.67;;
23754;SDS011;12057;52.042;6.830;2022-07-23T07:24:31;14.90;;;4.40;;
23754;SDS011;12057;52.042;6.830;2022-07-23T07:29:32;11.67;;;2.80;;
23754;SDS011;12057;52.042;6.830;2022-07-23T07:34:33;12.00;;;3.00;;
23754;SDS011;12057;52.042;6.830;2022-07-23T07:39:33;5.77;;;2.37;;
23754;SDS011;12057;52.042;6.830;2022-07-23T07:44:34;5.23;;;2.87;;
23754;SDS011;12057;52.042;6.830;2022-07-23T07:49:35;3.30;;;2.20;;
23754;SDS011;12057;52.042;6.830;2022-07-23T07:54:42;5.20;;;2.20;;
23754;SDS011;12057;52.042;6.830;2022-07-23T07:59:43;7.82;;;2.40;;
23754;SDS011;12057;52.042;6.830;2022-07-23T08:04:44;7.50;;;1.73;;
23754;SDS011;12057;52.042;6.830;2022-07-23T08:09:45;7.37;;;2.40;;
23754;SDS011;12057;52.042;6.830;2022-07-23T08:14:45;16.10;;;2.83;;
23754;SDS011;12057;52.042;6.830;2022-07-23T08:19:46;4.20;;;1.80;;
23754;SDS011;12057;52.042;6.830;2022-07-23T08:24:47;3.97;;;1.53;;
23754;SDS011;12057;52.042;6.830;2022-07-23T08:29:47;7.10;;;1.83;;
23754;SDS011;12057;52.042;6.830;2022-07-23T08:34:48;7.23;;;1.73;;
23754;SDS011;12057;52.042;6.830;2022-07-23T08:39:49;7.50;;;2.07;;
23754;SDS011;12057;52.042;6.830;2022-07-23T08:44:49;8.77;;;1.80;;
23754;SDS011;12057;52.042;6.830;2022-07-23T08:49:50;3.83;;;1.50;;
23754;SDS011;12057;52.042;6.830;2022-07-23T08:54:51;7.07;;;3.05;;
23754;SDS011;12057;52.042;6.830;2022-07-23T08:59:53;10.45;;;1.83;;
23754;SDS011;12057;52.042;6.830;2022-07-23T09:04:53;5.10;;;1.57;;
23754;SDS011;12057;52.042;6.830;2022-07-23T09:10:05;7.07;;;1.90;;
23754;SDS011;12057;52.042;6.830;2022-07-23T09:15:08;8.98;;;1.60;;
23754;SDS011;12057;52.042;6.830;2022-07-23T09:20:13;2.90;;;1.48;;
23754;SDS011;12057;52.042;6.830;2022-07-23T09:25:17;7.63;;;1.65;;
23754;SDS011;12057;52.042;6.830;2022-07-23T09:30:20;3.42;;;1.40;;
23754;SDS011;12057;52.042;6.830;2022-07-23T09:35:22;4.55;;;1.35;;
23754;SDS011;12057;52.042;6.830;2022-07-23T09:41:09;4.77;;;1.40;;
23754;SDS011;12057;52.042;6.830;2022-07-23T09:46:17;3.38;;;1.55;;
23754;SDS011;12057;52.042;6.830;2022-07-23T09:51:19;3.38;;;1.10;;
23754;SDS011;12057;52.042;6.830;2022-07-23T09:56:32;8.10;;;2.20;;
23754;SDS011;12057;52.042;6.830;2022-07-23T10:01:35;6.10;;;1.42;;
23754;SDS011;12057;52.042;6.830;2022-07-23T10:06:36;4.20;;;1.13;;
23754;SDS011;12057;52.042;6.830;2022-07-23T10:11:39;8.32;;;1.05;;
23754;SDS011;12057;52.042;6.830;2022-07-23T10:16:40;5.97;;;1.20;;
23754;SDS011;12057;52.042;6.830;2022-07-23T10:21:44;2.10;;;0.88;;
23754;SDS011;12057;52.042;6.830;2022-07-23T10:26:52;1.95;;;1.02;;
23754;SDS011;12057;52.042;6.830;2022-07-23T10:38:02;6.57;;;1.13;;
23754;SDS011;12057;52.042;6.830;2022-07-23T10:43:18;2.42;;;0.95;;
23754;SDS011;12057;52.042;6.830;2022-07-23T10:48:25;2.30;;;1.02;;
23754;SDS011;12057;52.042;6.830;2022-07-23T10:53:26;7.72;;;1.77;;
23754;SDS011;12057;52.042;6.830;2022-07-23T10:58:45;3.17;;;1.02;;
23754;SDS011;12057;52.042;6.830;2022-07-23T11:03:55;3.40;;;1.20;;
23754;SDS011;12057;52.042;6.830;2022-07-23T11:15:01;4.15;;;1.15;;
23754;SDS011;12057;52.042;6.830;2022-07-23T11:20:15;3.08;;;1.02;;
23754;SDS011;12057;52.042;6.830;2022-07-23T11:35:28;1.97;;;1.43;;
23754;SDS011;12057;52.042;6.830;2022-07-23T11:40:31;6.78;;;1.40;;
23754;SDS011;12057;52.042;6.830;2022-07-23T11:45:34;5.10;;;1.50;;
23754;SDS011;12057;52.042;6.830;2022-07-23T11:50:39;2.45;;;1.20;;
23754;SDS011;12057;52.042;6.830;2022-07-23T11:55:40;4.47;;;1.33;;
23754;SDS011;12057;52.042;6.830;2022-07-23T12:00:41;2.88;;;1.25;;
23754;SDS011;12057;52.042;6.830;2022-07-23T12:05:42;5.72;;;1.83;;
23754;SDS011;12057;52.042;6.830;2022-07-23T12:10:43;3.95;;;1.40;;
23754;SDS011;12057;52.042;6.830;2022-07-23T12:15:45;4.47;;;1.38;;
23754;SDS011;12057;52.042;6.830;2022-07-23T12:20:49;5.50;;;1.55;;
23754;SDS011;12057;52.042;6.830;2022-07-23T12:25:52;5.47;;;1.63;;
23754;SDS011;12057;52.042;6.830;2022-07-23T12:30:53;4.47;;;1.30;;
23754;SDS011;12057;52.042;6.830;2022-07-23T12:36:00;6.85;;;1.52;;
23754;SDS011;12057;52.042;6.830;2022-07-23T12:41:03;2.58;;;1.38;;
23754;SDS011;12057;52.042;6.830;2022-07-23T12:46:09;7.38;;;1.70;;
23754;SDS011;12057;52.042;6.830;2022-07-23T12:51:15;6.47;;;1.73;;
23754;SDS011;12057;52.042;6.830;2022-07-23T12:56:21;6.95;;;2.63;;
23754;SDS011;12057;52.042;6.830;2022-07-23T13:01:31;6.55;;;2.58;;
23754;SDS011;12057;52.042;6.830;2022-07-23T13:11:43;6.75;;;2.17;;
23754;SDS011;12057;52.042;6.830;2022-07-23T13:16:46;4.90;;;1.90;;
23754;SDS011;12057;52.042;6.830;2022-07-23T13:21:47;7.70;;;1.95;;
23754;SDS011;12057;52.042;6.830;2022-07-23T13:26:49;4.13;;;1.65;;
23754;SDS011;12057;52.042;6.830;2022-07-23T13:31:50;4.57;;;1.70;;
23754;SDS011;12057;52.042;6.830;2022-07-23T13:36:51;5.55;;;1.70;;
23754;SDS011;12057;52.042;6.830;2022-07-23T13:41:52;13.40;;;3.80;;
23754;SDS011;12057;52.042;6.830;2022-07-23T13:46:52;8.68;;;1.98;;
23754;SDS011;12057;52.042;6.830;2022-07-23T13:51:53;3.13;;;1.75;;
23754;SDS011;12057;52.042;6.830;2022-07-23T13:56:54;13.05;;;2.70;;
23754;SDS011;12057;52.042;6.830;2022-07-23T14:01:55;3.20;;;1.70;;
23754;SDS011;12057;52.042;6.830;2022-07-23T14:06:56;4.88;;;1.90;;
23754;SDS011;12057;52.042;6.830;2022-07-23T14:11:57;4.60;;;1.80;;
23754;SDS011;12057;52.042;6.830;2022-07-23T14:16:58;6.57;;;1.83;;
23754;SDS011;12057;52.042;6.830;2022-07-23T14:21:58;4.55;;;1.80;;
23754;SDS011;12057;52.042;6.830;2022-07-23T14:27:00;11.07;;;1.88;;
23754;SDS011;12057;52.042;6.830;2022-07-23T14:32:02;11.32;;;2.08;;
23754;SDS011;12057;52.042;6.830;2022-07-23T14:37:03;11.32;;;1.70;;
23754;SDS011;12057;52.042;6.830;2022-07-23T14:42:05;3.78;;;1.60;;
23754;SDS011;12057;52.042;6.830;2022-07-23T14:47:06;6.15;;;1.67;;
23754;SDS011;12057;52.042;6.830;2022-07-23T14:52:07;3.72;;;1.70;;
23754;SDS011;12057;52.042;6.830;2022-07-23T14:57:08;2.60;;;1.77;;
23754;SDS011;12057;52.042;6.830;2022-07-23T15:07:10;4.33;;;2.07;;
23754;SDS011;12057;52.042;6.830;2022-07-23T15:12:10;4.70;;;1.55;;
23754;SDS011;12057;52.042;6.830;2022-07-23T15:17:11;7.22;;;2.00;;
23754;SDS011;12057;52.042;6.830;2022-07-23T15:22:12;8.85;;;2.30;;
23754;SDS011;12057;52.042;6.830;2022-07-23T15:27:13;7.45;;;1.83;;
23754;SDS011;12057;52.042;6.830;2022-07-23T15:32:13;5.80;;;2.70;;
23754;SDS011;12057;52.042;6.830;2022-07-23T15:37:14;6.18;;;2.42;;
23754;SDS011;12057;52.042;6.830;2022-07-23T15:42:15;6.40;;;1.60;;
23754;SDS011;12057;52.042;6.830;2022-07-23T15:47:16;6.45;;;2.15;;
23754;SDS011;12057;52.042;6.830;2022-07-23T15:52:17;3.08;;;1.83;;
23754;SDS011;12057;52.042;6.830;2022-07-23T15:57:18;4.82;;;2.15;;
23754;SDS011;12057;52.042;6.830;2022-07-23T16:02:19;6.77;;;2.07;;
23754;SDS011;12057;52.042;6.830;2022-07-23T16:07:20;4.27;;;2.20;;
23754;SDS011;12057;52.042;6.830;2022-07-23T16:12:20;3.40;;;1.50;;
23754;SDS011;12057;52.042;6.830;2022-07-23T16:17:21;7.17;;;2.23;;
23754;SDS011;12057;52.042;6.830;2022-07-23T16:22:23;9.23;;;2.80;;
23754;SDS011;12057;52.042;6.830;2022-07-23T16:27:24;6.87;;;2.20;;
23754;SDS011;12057;52.042;6.830;2022-07-23T16:32:24;7.50;;;3.50;;
23754;SDS011;12057;52.042;6.830;2022-07-23T16:37:25;7.67;;;2.57;;
23754;SDS011;12057;52.042;6.830;2022-07-23T16:42:26;5.50;;;2.58;;
23754;SDS011;12057;52.042;6.830;2022-07-23T16:47:30;9.98;;;2.08;;
23754;SDS011;12057;52.042;6.830;2022-07-23T16:52:30;7.47;;;4.03;;
23754;SDS011;12057;52.042;6.830;2022-07-23T16:57:32;7.05;;;3.20;;
23754;SDS011;12057;52.042;6.830;2022-07-23T17:02:33;5.60;;;2.80;;
23754;SDS011;12057;52.042;6.830;2022-07-23T17:07:34;5.13;;;2.80;;
23754;SDS011;12057;52.042;6.830;2022-07-23T17:12:35;8.00;;;2.97;;
23754;SDS011;12057;52.042;6.830;2022-07-23T17:22:37;6.77;;;2.17;;
23754;SDS011;12057;52.042;6.830;2022-07-23T17:27:40;6.40;;;1.65;;
23754;SDS011;12057;52.042;6.830;2022-07-23T17:32:42;5.72;;;1.75;;
23754;SDS011;12057;52.042;6.830;2022-07-23T17:37:43;3.73;;;2.03;;
23754;SDS011;12057;52.042;6.830;2022-07-23T17:42:44;4.10;;;2.03;;
23754;SDS011;12057;52.042;6.830;2022-07-23T17:47:45;7.67;;;2.13;;
23754;SDS011;12057;52.042;6.830;2022-07-23T17:52:52;6.47;;;2.00;;
23754;SDS011;12057;52.042;6.830;2022-07-23T17:57:54;4.15;;;2.10;;
23754;SDS011;12057;52.042;6.830;2022-07-23T18:02:57;6.28;;;2.33;;
23754;SDS011;12057;52.042;6.830;2022-07-23T18:12:59;11.77;;;2.80;;
23754;SDS011;12057;52.042;6.830;2022-07-23T18:23:01;6.70;;;2.20;;
23754;SDS011;12057;52.042;6.830;2022-07-23T18:28:02;9.57;;;3.13;;
23754;SDS011;12057;52.042;6.830;2022-07-23T18:33:03;6.57;;;3.47;;
23754;SDS011;12057;52.042;6.830;2022-07-23T18:38:04;6.85;;;3.17;;
23754;SDS011;12057;52.042;6.830;2022-07-23T18:43:05;7.50;;;2.93;;
23754;SDS011;12057;52.042;6.830;2022-07-23T18:48:06;4.72;;;1.92;;
23754;SDS011;12057;52.042;6.830;2022-07-23T18:53:07;8.53;;;3.77;;
23754;SDS011;12057;52.042;6.830;2022-07-23T18:58:07;7.07;;;2.57;;
23754;SDS011;12057;52.042;6.830;2022-07-23T19:03:08;7.10;;;2.53;;
23754;SDS011;12057;52.042;6.830;2022-07-23T19:08:09;8.50;;;2.63;;
23754;SDS011;12057;52.042;6.830;2022-07-23T19:13:10;13.20;;;2.23;;
23754;SDS011;12057;52.042;6.830;2022-07-23T19:18:11;8.53;;;2.23;;
23754;SDS011;12057;52.042;6.830;2022-07-23T19:23:11;4.70;;;2.13;;
23754;SDS011;12057;52.042;6.830;2022-07-23T19:28:12;9.07;;;2.33;;
23754;SDS011;12057;52.042;6.830;2022-07-23T19:33:13;3.63;;;2.47;;
23754;SDS011;12057;52.042;6.830;2022-07-23T19:38:14;11.57;;;4.30;;
23754;SDS011;12057;52.042;6.830;2022-07-23T19:48:16;4.78;;;2.83;;
23754;SDS011;12057;52.042;6.830;2022-07-23T19:53:16;6.57;;;2.67;;
23754;SDS011;12057;52.042;6.830;2022-07-23T19:58:17;6.03;;;2.80;;
23754;SDS011;12057;52.042;6.830;2022-07-23T20:03:18;6.80;;;2.80;;
23754;SDS011;12057;52.042;6.830;2022-07-23T20:08:22;6.20;;;3.37;;
23754;SDS011;12057;52.042;6.830;2022-07-23T20:13:23;8.63;;;4.25;;
23754;SDS011;12057;52.042;6.830;2022-07-23T20:18:23;12.30;;;4.60;;
23754;SDS011;12057;52.042;6.830;2022-07-23T20:23:25;8.25;;;4.15;;
23754;SDS011;12057;52.042;6.830;2022-07-23T20:28:26;6.70;;;3.33;;
23754;SDS011;12057;52.042;6.830;2022-07-23T20:33:27;10.00;;;4.77;;
23754;SDS011;12057;52.042;6.830;2022-07-23T20:38:28;13.20;;;4.37;;
23754;SDS011;12057;52.042;6.830;2022-07-23T20:43:31;32.72;;;7.35;;
23754;SDS011;12057;52.042;6.830;2022-07-23T20:48:31;9.63;;;4.73;;
23754;SDS011;12057;52.042;6.830;2022-07-23T20:53:32;11.93;;;5.17;;
23754;SDS011;12057;52.042;6.830;2022-07-23T20:58:33;11.30;;;6.53;;
23754;SDS011;12057;52.042;6.830;2022-07-23T21:03:33;13.93;;;6.57;;
23754;SDS011;12057;52.042;6.830;2022-07-23T21:08:35;14.70;;;6.33;;
23754;SDS011;12057;52.042;6.830;2022-07-23T21:13:35;16.02;;;5.45;;
23754;SDS011;12057;52.042;6.830;2022-07-23T21:18:36;10.10;;;5.17;;
23754;SDS011;12057;52.042;6.830;2022-07-23T21:23:41;22.10;;;5.63;;
23754;SDS011;12057;52.042;6.830;2022-07-23T21:28:47;10.82;;;5.43;;
23754;SDS011;12057;52.042;6.830;2022-07-23T21:33:47;12.17;;;5.93;;
23754;SDS011;12057;52.042;6.830;2022-07-23T21:38:48;17.23;;;5.07;;
23754;SDS011;12057;52.042;6.830;2022-07-23T21:43:49;13.57;;;4.87;;
23754;SDS011;12057;52.042;6.830;2022-07-23T21:48:50;19.00;;;5.37;;
23754;SDS011;12057;52.042;6.830;2022-07-23T21:53:50;15.30;;;5.80;;
23754;SDS011;12057;52.042;6.830;2022-07-23T21:58:51;10.93;;;5.30;;
23754;SDS011;12057;52.042;6.830;2022-07-23T22:03:52;11.43;;;4.07;;
23754;SDS011;12057;52.042;6.830;2022-07-23T22:08:52;48.80;;;19.77;;
23754;SDS011;12057;52.042;6.830;2022-07-23T22:13:53;16.70;;;6.50;;
23754;SDS011;12057;52.042;6.830;2022-07-23T22:18:54;13.10;;;5.37;;
23754;SDS011;12057;52.042;6.830;2022-07-23T22:23:55;13.07;;;5.03;;
23754;SDS011;12057;52.042;6.830;2022-07-23T22:28:55;16.07;;;6.60;;
23754;SDS011;12057;52.042;6.830;2022-07-23T22:33:56;12.03;;;5.23;;
23754;SDS011;12057;52.042;6.830;2022-07-23T22:38:57;11.83;;;4.60;;
23754;SDS011;12057;52.042;6.830;2022-07-23T22:44:00;9.13;;;3.57;;
23754;SDS011;12057;52.042;6.830;2022-07-23T22:49:01;10.20;;;4.53;;
23754;SDS011;12057;52.042;6.830;2022-07-23T22:54:01;11.33;;;4.87;;
23754;SDS011;12057;52.042;6.830;2022-07-23T22:59:02;8.43;;;4.03;;
23754;SDS011;12057;52.042;6.830;2022-07-23T23:04:03;9.33;;;4.03;;
23754;SDS011;12057;52.042;6.830;2022-07-23T23:09:04;8.13;;;4.83;;
23754;SDS011;12057;52.042;6.830;2022-07-23T23:14:05;7.33;;;4.23;;
23754;SDS011;12057;52.042;6.830;2022-07-23T23:19:06;7.77;;;4.37;;
23754;SDS011;12057;52.042;6.830;2022-07-23T23:24:06;7.20;;;4.30;;
23754;SDS011;12057;52.042;6.830;2022-07-23T23:34:09;12.88;;;5.80;;
23754;SDS011;12057;52.042;6.830;2022-07-23T23:39:09;12.70;;;5.97;;
23754;SDS011;12057;52.042;6.830;2022-07-23T23:44:10;8.73;;;5.27;;
23754;SDS011;12057;52.042;6.830;2022-07-23T23:49:11;13.23;;;5.93;;
23754;SDS011;12057;52.042;6.830;2022-07-23T23:54:12;10.93;;;5.43;;
23754;SDS011;12057;52.042;6.830;2022-07-23T23:59:14;11.65;;;5.55;;
